createdAt,value
2018-08-12T00:01:01.803Z,5.60
2018-08-12T00:03:30.917Z,6.67
2018-08-12T00:06:06.169Z,4.30
2018-08-12T00:08:34.943Z,6.77
2018-08-12T00:11:03.747Z,3.37
2018-08-12T00:13:33.590Z,3.37
2018-08-12T00:16:02.327Z,5.63
2018-08-12T00:18:31.599Z,6.83
2018-08-12T00:21:00.458Z,6.80
2018-08-12T00:23:29.715Z,5.70
2018-08-12T00:25:58.873Z,4.90
2018-08-12T00:28:28.338Z,5.20
2018-08-12T00:30:57.543Z,7.87
2018-08-12T00:33:26.714Z,6.60
2018-08-12T00:35:55.473Z,4.27
2018-08-12T00:38:24.303Z,4.93
2018-08-12T00:40:53.510Z,7.10
2018-08-12T00:43:22.468Z,6.20
2018-08-12T00:45:51.284Z,8.03
2018-08-12T00:48:20.067Z,4.33
2018-08-12T00:50:48.856Z,5.63
2018-08-12T00:53:17.647Z,4.17
2018-08-12T00:55:46.491Z,5.83
2018-08-12T00:58:15.650Z,4.97
2018-08-12T01:00:44.685Z,11.63
2018-08-12T01:03:13.779Z,6.00
2018-08-12T01:05:42.552Z,7.63
2018-08-12T01:08:11.305Z,9.50
2018-08-12T01:10:40.731Z,5.57
2018-08-12T01:13:09.483Z,5.77
2018-08-12T01:15:38.544Z,10.83
2018-08-12T01:18:08.053Z,7.27
2018-08-12T01:20:37.323Z,5.60
2018-08-12T01:23:06.619Z,4.90
2018-08-12T01:25:35.320Z,5.23
2018-08-12T01:28:04.431Z,5.77
2018-08-12T01:30:33.471Z,5.63
2018-08-12T01:33:02.472Z,6.60
2018-08-12T01:35:31.581Z,4.90
2018-08-12T01:38:00.357Z,8.17
2018-08-12T01:40:29.308Z,9.60
2018-08-12T01:42:58.222Z,10.47
2018-08-12T01:45:27.099Z,13.10
2018-08-12T01:47:56.549Z,8.33
2018-08-12T01:50:26.595Z,6.03
2018-08-12T01:52:55.799Z,11.03
2018-08-12T01:55:24.933Z,8.07
2018-08-12T01:57:54.065Z,6.47
2018-08-12T02:00:23.612Z,6.40
2018-08-12T02:02:53.162Z,7.60
2018-08-12T02:05:22.181Z,5.60
2018-08-12T02:07:51.062Z,5.87
2018-08-12T02:10:19.965Z,10.73
2018-08-12T02:12:49.002Z,8.60
2018-08-12T02:15:18.856Z,5.37
2018-08-12T02:17:47.790Z,6.50
2018-08-12T02:20:17.019Z,6.63
2018-08-12T02:22:46.746Z,7.83
2018-08-12T02:25:15.562Z,6.20
2018-08-12T02:27:45.745Z,6.40
2018-08-12T02:30:15.405Z,8.20
2018-08-12T02:32:45.367Z,6.20
2018-08-12T02:35:14.876Z,6.80
2018-08-12T02:37:45.412Z,6.40
2018-08-12T02:40:15.501Z,6.30
2018-08-12T02:42:44.312Z,10.90
2018-08-12T02:45:15.545Z,11.53
2018-08-12T02:47:44.879Z,6.43
2018-08-12T02:50:14.466Z,6.10
2018-08-12T02:52:44.016Z,9.47
2018-08-12T02:55:14.181Z,6.83
2018-08-12T02:57:43.364Z,6.87
2018-08-12T03:00:13.323Z,8.40
2018-08-12T03:02:42.814Z,7.67
2018-08-12T03:05:12.352Z,6.97
2018-08-12T03:07:41.436Z,9.73
2018-08-12T03:10:10.590Z,7.00
2018-08-12T03:12:39.579Z,8.47
2018-08-12T03:15:10.527Z,7.53
2018-08-12T03:17:40.320Z,6.60
2018-08-12T03:20:13.785Z,6.20
2018-08-12T03:22:43.233Z,9.23
2018-08-12T03:25:12.133Z,9.77
2018-08-12T03:27:41.271Z,6.90
2018-08-12T03:30:11.712Z,7.63
2018-08-12T03:32:41.040Z,7.10
2018-08-12T03:35:10.148Z,10.10
2018-08-12T03:37:39.267Z,7.90
2018-08-12T03:40:10.712Z,10.43
2018-08-12T03:42:39.496Z,14.10
2018-08-12T03:45:08.976Z,7.50
2018-08-12T03:47:38.006Z,5.90
2018-08-12T03:50:08.112Z,9.40
2018-08-12T03:52:37.317Z,8.87
2018-08-12T03:55:06.342Z,8.50
2018-08-12T03:57:35.543Z,9.70
2018-08-12T04:00:05.768Z,15.03
2018-08-12T04:02:34.509Z,11.40
2018-08-12T04:05:03.565Z,12.33
2018-08-12T04:07:32.374Z,8.70
2018-08-12T04:10:01.477Z,9.37
2018-08-12T04:12:30.722Z,10.60
2018-08-12T04:14:59.740Z,6.70
2018-08-12T04:17:29.652Z,15.93
2018-08-12T04:19:58.669Z,10.63
2018-08-12T04:22:27.442Z,9.73
2018-08-12T04:24:56.183Z,6.57
2018-08-12T04:27:25.344Z,5.77
2018-08-12T04:29:54.345Z,9.87
2018-08-12T04:32:23.352Z,8.67
2018-08-12T04:34:52.078Z,7.97
2018-08-12T04:37:21.067Z,6.33
2018-08-12T04:39:49.833Z,13.47
2018-08-12T04:42:18.585Z,7.30
2018-08-12T04:44:47.684Z,6.20
2018-08-12T04:47:16.455Z,10.17
2018-08-12T04:49:45.465Z,13.30
2018-08-12T04:52:14.232Z,12.00
2018-08-12T04:54:42.985Z,12.47
2018-08-12T04:57:11.741Z,13.83
2018-08-12T04:59:40.479Z,8.97
2018-08-12T05:02:09.464Z,6.20
2018-08-12T05:04:39.669Z,6.97
2018-08-12T05:07:09.088Z,14.33
2018-08-12T05:09:37.896Z,6.40
2018-08-12T05:12:07.245Z,9.00
2018-08-12T05:14:36.307Z,9.90
2018-08-12T05:17:06.184Z,11.90
2018-08-12T05:19:35.258Z,9.40
2018-08-12T05:22:04.624Z,12.37
2018-08-12T05:24:33.559Z,6.47
2018-08-12T05:27:02.811Z,8.57
2018-08-12T05:29:32.835Z,7.03
2018-08-12T05:32:02.407Z,7.13
2018-08-12T05:34:32.215Z,6.60
2018-08-12T05:37:01.007Z,10.57
2018-08-12T05:39:30.111Z,6.00
2018-08-12T05:41:59.816Z,5.80
2018-08-12T05:44:29.151Z,7.60
2018-08-12T05:46:58.680Z,8.43
2018-08-12T05:49:28.332Z,12.20
2018-08-12T05:51:57.498Z,13.70
2018-08-12T05:54:26.467Z,5.80
2018-08-12T05:56:55.278Z,11.17
2018-08-12T05:59:24.926Z,6.77
2018-08-12T06:01:53.834Z,6.73
2018-08-12T06:04:23.611Z,10.63
2018-08-12T06:06:52.451Z,10.50
2018-08-12T06:09:21.653Z,13.03
2018-08-12T06:11:50.536Z,10.30
2018-08-12T06:14:19.279Z,8.90
2018-08-12T06:16:48.354Z,8.47
2018-08-12T06:19:17.108Z,7.30
2018-08-12T06:21:45.933Z,10.53
2018-08-12T06:24:14.653Z,13.30
2018-08-12T06:26:43.382Z,22.43
2018-08-12T06:29:12.440Z,12.27
2018-08-12T06:31:41.439Z,9.90
2018-08-12T06:34:10.196Z,12.03
2018-08-12T06:36:39.277Z,13.90
2018-08-12T06:39:10.198Z,6.83
2018-08-12T06:41:39.267Z,11.17
2018-08-12T06:44:08.618Z,10.17
2018-08-12T06:46:37.328Z,8.00
2018-08-12T06:49:06.178Z,7.70
2018-08-12T06:51:35.061Z,5.87
2018-08-12T06:54:03.802Z,6.57
2018-08-12T06:56:33.417Z,10.00
2018-08-12T06:59:02.184Z,9.60
2018-08-12T07:01:30.945Z,9.50
2018-08-12T07:04:00.159Z,6.40
2018-08-12T07:06:28.920Z,8.80
2018-08-12T07:08:57.723Z,9.27
2018-08-12T07:11:26.507Z,7.37
2018-08-12T07:13:55.581Z,7.47
2018-08-12T07:16:24.318Z,7.20
2018-08-12T07:18:53.167Z,8.60
2018-08-12T07:21:22.210Z,8.83
2018-08-12T07:23:51.002Z,9.53
2018-08-12T07:26:19.749Z,6.13
2018-08-12T07:28:49.297Z,8.37
2018-08-12T07:31:18.428Z,7.53
2018-08-12T07:33:47.156Z,9.37
2018-08-12T07:36:15.916Z,10.40
2018-08-12T07:38:44.805Z,9.60
2018-08-12T07:41:13.705Z,8.17
2018-08-12T07:43:42.995Z,9.27
2018-08-12T07:46:11.720Z,8.60
2018-08-12T07:48:40.843Z,9.43
2018-08-12T07:51:09.575Z,8.87
2018-08-12T07:53:38.626Z,9.20
2018-08-12T07:56:07.756Z,5.53
2018-08-12T07:58:36.761Z,6.07
2018-08-12T08:01:05.707Z,12.87
2018-08-12T08:03:34.798Z,8.33
2018-08-12T08:06:03.912Z,9.50
2018-08-12T08:08:33.133Z,7.47
2018-08-12T08:11:02.364Z,5.80
2018-08-12T08:13:31.527Z,8.57
2018-08-12T08:16:00.698Z,12.20
2018-08-12T08:18:29.707Z,14.17
2018-08-12T08:20:58.481Z,13.10
2018-08-12T08:23:27.279Z,8.27
2018-08-12T08:25:56.393Z,6.40
2018-08-12T08:28:25.093Z,6.23
2018-08-12T08:30:54.499Z,6.33
2018-08-12T08:33:23.542Z,11.37
2018-08-12T08:35:52.511Z,11.70
2018-08-12T08:38:21.303Z,6.10
2018-08-12T08:40:50.031Z,7.77
2018-08-12T08:43:18.749Z,6.90
2018-08-12T08:45:47.931Z,9.10
2018-08-12T08:48:17.261Z,7.37
2018-08-12T08:50:46.419Z,6.27
2018-08-12T08:53:15.080Z,8.70
2018-08-12T08:55:44.432Z,12.23
2018-08-12T08:58:13.157Z,12.10
2018-08-12T09:00:42.138Z,7.27
2018-08-12T09:03:11.173Z,7.87
2018-08-12T09:05:40.543Z,5.27
2018-08-12T09:08:09.382Z,5.77
2018-08-12T09:10:38.631Z,9.50
2018-08-12T09:13:07.405Z,10.57
2018-08-12T09:15:36.211Z,8.97
2018-08-12T09:18:05.239Z,9.67
2018-08-12T09:20:34.236Z,5.43
2018-08-12T09:23:06.133Z,7.47
2018-08-12T09:25:35.864Z,9.60
2018-08-12T09:28:04.629Z,8.43
2018-08-12T09:30:33.383Z,9.27
2018-08-12T09:33:02.202Z,9.33
2018-08-12T09:35:30.991Z,4.97
2018-08-12T09:38:00.189Z,7.77
2018-08-12T09:40:28.937Z,6.17
2018-08-12T09:42:58.170Z,6.90
2018-08-12T09:45:27.343Z,6.17
2018-08-12T09:47:56.089Z,9.40
2018-08-12T09:50:25.156Z,6.77
2018-08-12T09:52:54.926Z,6.10
2018-08-12T09:55:24.151Z,4.20
2018-08-12T09:57:53.365Z,7.93
2018-08-12T10:00:32.889Z,10.70
2018-08-12T10:03:01.679Z,6.60
2018-08-12T10:05:30.458Z,5.90
2018-08-12T10:07:59.897Z,5.37
2018-08-12T10:10:29.010Z,6.53
2018-08-12T10:12:58.113Z,5.30
2018-08-12T10:15:26.905Z,5.73
2018-08-12T10:17:58.174Z,14.33
2018-08-12T10:20:27.309Z,2.93
2018-08-12T10:22:56.458Z,4.10
2018-08-12T10:25:25.491Z,3.63
2018-08-12T10:27:54.610Z,3.40
2018-08-12T10:30:23.620Z,5.77
2018-08-12T10:32:52.787Z,4.27
2018-08-12T10:35:22.550Z,8.13
2018-08-12T10:37:51.324Z,7.07
2018-08-12T10:40:21.903Z,4.60
2018-08-12T10:42:51.238Z,4.90
2018-08-12T10:45:20.428Z,3.67
2018-08-12T10:47:49.226Z,2.73
2018-08-12T10:50:19.246Z,7.93
2018-08-12T10:52:49.031Z,4.87
2018-08-12T10:55:19.655Z,1.83
2018-08-12T10:57:48.473Z,4.47
2018-08-12T11:00:20.098Z,1.57
2018-08-12T11:02:50.098Z,6.03
2018-08-12T11:05:19.137Z,2.53
2018-08-12T11:07:51.002Z,4.93
2018-08-12T11:10:20.186Z,4.43
2018-08-12T11:12:49.355Z,3.30
2018-08-12T11:15:18.334Z,5.53
2018-08-12T11:17:47.089Z,3.90
2018-08-12T11:20:16.235Z,5.13
2018-08-12T11:22:45.229Z,7.43
2018-08-12T11:25:14.263Z,2.00
2018-08-12T11:27:43.014Z,2.97
2018-08-12T11:30:15.900Z,4.40
2018-08-12T11:32:44.708Z,6.20
2018-08-12T11:35:14.991Z,5.00
2018-08-12T11:37:44.234Z,2.03
2018-08-12T11:40:14.129Z,3.27
2018-08-12T11:42:43.315Z,4.30
2018-08-12T11:45:14.067Z,3.73
2018-08-12T11:47:43.644Z,4.60
2018-08-12T11:50:14.609Z,2.50
2018-08-12T11:52:44.758Z,2.90
2018-08-12T11:55:16.636Z,3.10
2018-08-12T11:57:45.380Z,2.27
2018-08-12T12:00:19.323Z,1.50
2018-08-12T12:02:50.429Z,2.23
2018-08-12T12:05:19.164Z,4.90
2018-08-12T12:07:48.023Z,3.50
2018-08-12T12:10:19.999Z,4.67
2018-08-12T12:12:50.772Z,2.50
2018-08-12T12:15:20.139Z,2.33
2018-08-12T12:17:49.823Z,4.30
2018-08-12T12:20:19.420Z,2.47
2018-08-12T12:22:48.646Z,2.60
2018-08-12T12:25:18.855Z,6.10
2018-08-12T12:27:47.622Z,1.60
2018-08-12T12:30:17.785Z,2.53
2018-08-12T12:32:47.845Z,5.10
2018-08-12T12:35:16.581Z,4.50
2018-08-12T12:37:48.274Z,4.30
2018-08-12T12:40:18.205Z,2.30
2018-08-12T12:42:48.427Z,2.40
2018-08-12T12:45:18.451Z,5.93
2018-08-12T12:47:47.226Z,2.10
2018-08-12T12:50:18.401Z,2.83
2018-08-12T12:52:49.231Z,3.93
2018-08-12T12:55:18.559Z,2.10
2018-08-12T12:57:47.784Z,2.33
2018-08-12T13:00:18.207Z,3.50
2018-08-12T13:02:47.240Z,2.57
2018-08-12T13:05:17.999Z,3.17
2018-08-12T13:07:47.811Z,3.50
2018-08-12T13:10:17.765Z,2.80
2018-08-12T13:12:46.569Z,5.63
2018-08-12T13:15:16.163Z,4.30
2018-08-12T13:17:45.478Z,4.37
2018-08-12T13:20:16.409Z,6.13
2018-08-12T13:22:46.606Z,2.40
2018-08-12T13:25:17.469Z,2.17
2018-08-12T13:27:46.624Z,5.30
2018-08-12T13:30:16.313Z,2.83
2018-08-12T13:32:46.913Z,4.77
2018-08-12T13:35:15.968Z,4.33
2018-08-12T13:37:44.697Z,5.00
2018-08-12T13:40:14.910Z,5.20
2018-08-12T13:42:44.458Z,3.83
2018-08-12T13:45:13.922Z,4.37
2018-08-12T13:47:43.994Z,2.83
2018-08-12T13:50:22.416Z,4.63
2018-08-12T13:52:51.836Z,1.90
2018-08-12T13:55:21.183Z,3.33
2018-08-12T13:57:50.524Z,2.37
2018-08-12T14:00:21.029Z,4.97
2018-08-12T14:02:50.046Z,6.00
2018-08-12T14:05:19.553Z,20.40
2018-08-12T14:07:48.858Z,3.67
2018-08-12T14:10:17.609Z,1.57
2018-08-12T14:12:46.885Z,4.80
2018-08-12T14:15:17.676Z,1.73
2018-08-12T14:17:47.584Z,4.07
2018-08-12T14:20:17.794Z,2.83
2018-08-12T14:22:47.471Z,4.17
2018-08-12T14:25:16.575Z,3.27
2018-08-12T14:27:45.950Z,1.83
2018-08-12T14:30:17.021Z,1.20
2018-08-12T14:32:46.608Z,8.83
2018-08-12T14:35:15.643Z,2.80
2018-08-12T14:37:44.841Z,2.90
2018-08-12T14:40:14.267Z,5.90
2018-08-12T14:42:43.262Z,6.90
2018-08-12T14:45:13.213Z,1.63
2018-08-12T14:47:42.144Z,2.90
2018-08-12T14:50:12.673Z,2.37
2018-08-12T14:52:41.560Z,2.70
2018-08-12T14:55:10.938Z,1.23
2018-08-12T14:57:40.100Z,3.43
2018-08-12T15:00:12.439Z,4.70
2018-08-12T15:02:41.488Z,4.20
2018-08-12T15:05:10.633Z,2.50
2018-08-12T15:07:39.889Z,3.63
2018-08-12T15:10:10.608Z,1.97
2018-08-12T15:12:39.931Z,5.73
2018-08-12T15:15:10.957Z,1.73
2018-08-12T15:17:41.054Z,2.33
2018-08-12T15:20:10.116Z,1.50
2018-08-12T15:22:39.171Z,2.33
2018-08-12T15:25:09.855Z,4.80
2018-08-12T15:27:39.438Z,4.10
2018-08-12T15:30:09.740Z,3.63
2018-08-12T15:32:38.666Z,1.40
2018-08-12T15:35:08.246Z,1.77
2018-08-12T15:37:37.310Z,1.60
2018-08-12T15:40:08.645Z,2.43
2018-08-12T15:42:37.385Z,3.20
2018-08-12T15:45:09.302Z,2.47
2018-08-12T15:47:38.319Z,2.17
2018-08-12T15:50:08.173Z,1.00
2018-08-12T15:52:36.930Z,3.10
2018-08-12T15:55:06.571Z,1.67
2018-08-12T15:57:35.965Z,2.60
2018-08-12T16:00:14.066Z,1.50
2018-08-12T16:02:43.802Z,1.53
2018-08-12T16:05:12.812Z,1.20
2018-08-12T16:07:41.576Z,1.20
2018-08-12T16:10:16.185Z,3.03
2018-08-12T16:12:45.779Z,1.20
2018-08-12T16:15:14.563Z,2.67
2018-08-12T16:17:43.461Z,3.47
2018-08-12T16:20:13.050Z,1.30
2018-08-12T16:22:42.317Z,1.40
2018-08-12T16:25:13.986Z,1.20
2018-08-12T16:27:43.416Z,2.63
2018-08-12T16:30:13.639Z,1.80
2018-08-12T16:32:42.455Z,2.20
2018-08-12T16:35:12.919Z,2.33
2018-08-12T16:37:42.517Z,2.07
2018-08-12T16:40:13.218Z,1.43
2018-08-12T16:42:42.238Z,1.53
2018-08-12T16:45:12.819Z,2.33
2018-08-12T16:47:42.025Z,3.23
2018-08-12T16:50:11.793Z,1.60
2018-08-12T16:52:41.321Z,1.20
2018-08-12T16:55:12.140Z,5.17
2018-08-12T16:57:40.857Z,2.50
2018-08-12T17:00:17.875Z,1.00
2018-08-12T17:02:47.312Z,1.30
2018-08-12T17:05:18.493Z,3.17
2018-08-12T17:07:47.318Z,1.57
2018-08-12T17:10:17.503Z,2.80
2018-08-12T17:12:46.741Z,4.13
2018-08-12T17:15:17.738Z,2.07
2018-08-12T17:17:47.031Z,1.20
2018-08-12T17:20:16.896Z,1.10
2018-08-12T17:22:46.217Z,1.00
2018-08-12T17:25:14.987Z,1.10
2018-08-12T17:27:44.050Z,1.50
2018-08-12T17:30:14.333Z,1.80
2018-08-12T17:32:43.067Z,8.33
2018-08-12T17:35:11.865Z,3.43
2018-08-12T17:37:41.218Z,1.47
2018-08-12T17:40:12.092Z,2.43
2018-08-12T17:42:41.168Z,1.93
2018-08-12T17:45:11.373Z,2.47
2018-08-12T17:47:40.598Z,1.67
2018-08-12T17:50:10.982Z,1.20
2018-08-12T17:52:39.847Z,2.10
2018-08-12T17:55:08.891Z,2.00
2018-08-12T17:57:37.641Z,7.80
2018-08-12T18:00:08.864Z,3.07
2018-08-12T18:02:38.537Z,1.43
2018-08-12T18:05:08.128Z,2.63
2018-08-12T18:07:37.620Z,1.40
2018-08-12T18:10:06.634Z,1.10
2018-08-12T18:12:36.612Z,1.73
2018-08-12T18:15:06.851Z,1.50
2018-08-12T18:17:36.060Z,2.03
2018-08-12T18:20:05.790Z,6.60
2018-08-12T18:22:35.407Z,1.77
2018-08-12T18:25:04.843Z,1.37
2018-08-12T18:27:33.916Z,1.30
2018-08-12T18:30:02.727Z,1.87
2018-08-12T18:32:31.794Z,1.73
2018-08-12T18:35:00.942Z,8.30
2018-08-12T18:37:29.733Z,1.77
2018-08-12T18:39:58.471Z,1.20
2018-08-12T18:42:27.288Z,3.00
2018-08-12T18:44:56.046Z,3.60
2018-08-12T18:47:25.246Z,1.73
2018-08-12T18:49:54.630Z,1.30
2018-08-12T18:52:23.483Z,2.13
2018-08-12T18:54:53.366Z,1.43
2018-08-12T18:57:22.129Z,1.57
2018-08-12T18:59:51.288Z,2.33
2018-08-12T19:02:20.214Z,2.53
2018-08-12T19:04:48.946Z,4.03
2018-08-12T19:07:17.721Z,1.30
2018-08-12T19:09:46.497Z,2.40
2018-08-12T19:12:15.303Z,1.73
2018-08-12T19:14:44.308Z,1.60
2018-08-12T19:17:13.190Z,1.40
2018-08-12T19:19:41.912Z,2.10
2018-08-12T19:22:11.164Z,1.70
2018-08-12T19:24:40.311Z,2.50
2018-08-12T19:27:09.098Z,1.30
2018-08-12T19:29:37.805Z,2.57
2018-08-12T19:32:06.631Z,3.90
2018-08-12T19:34:35.390Z,1.50
2018-08-12T19:37:04.975Z,1.30
2018-08-12T19:39:33.756Z,2.80
2018-08-12T19:42:02.526Z,2.33
2018-08-12T19:44:31.281Z,4.70
2018-08-12T19:47:00.045Z,3.97
2018-08-12T19:49:28.804Z,8.93
2018-08-12T19:51:57.865Z,3.43
2018-08-12T19:54:26.819Z,4.60
2018-08-12T19:56:55.629Z,2.90
2018-08-12T19:59:24.673Z,2.40
2018-08-12T20:01:53.651Z,1.50
2018-08-12T20:04:22.433Z,1.77
2018-08-12T20:06:51.174Z,1.53
2018-08-12T20:09:19.913Z,3.90
2018-08-12T20:11:49.081Z,3.93
2018-08-12T20:14:18.391Z,2.27
2018-08-12T20:16:47.354Z,7.43
2018-08-12T20:19:16.381Z,2.43
2018-08-12T20:21:45.155Z,7.00
2018-08-12T20:24:14.019Z,1.90
2018-08-12T20:26:42.707Z,2.30
2018-08-12T20:29:12.263Z,1.53
2018-08-12T20:31:41.039Z,5.83
2018-08-12T20:34:10.339Z,2.73
2018-08-12T20:36:39.402Z,2.40
2018-08-12T20:39:12.720Z,2.07
2018-08-12T20:41:42.131Z,1.53
2018-08-12T20:44:11.246Z,2.23
2018-08-12T20:46:39.964Z,9.13
2018-08-12T20:49:09.120Z,1.90
2018-08-12T20:51:37.885Z,2.53
2018-08-12T20:54:06.613Z,5.50
2018-08-12T20:56:36.513Z,2.57
2018-08-12T20:59:05.238Z,2.43
2018-08-12T21:01:33.989Z,4.27
2018-08-12T21:04:03.085Z,2.60
2018-08-12T21:06:31.907Z,3.23
2018-08-12T21:09:01.582Z,2.17
2018-08-12T21:11:31.675Z,2.67
2018-08-12T21:14:00.466Z,3.77
2018-08-12T21:16:29.224Z,3.63
2018-08-12T21:18:58.246Z,1.60
2018-08-12T21:21:27.045Z,1.97
2018-08-12T21:23:55.906Z,2.27
2018-08-12T21:26:25.195Z,4.73
2018-08-12T21:28:54.760Z,2.10
2018-08-12T21:31:23.887Z,2.13
2018-08-12T21:33:53.280Z,3.23
2018-08-12T21:36:25.161Z,2.33
2018-08-12T21:38:53.995Z,3.53
2018-08-12T21:41:22.929Z,2.73
2018-08-12T21:43:52.083Z,2.33
2018-08-12T21:46:21.238Z,6.70
2018-08-12T21:48:50.019Z,7.33
2018-08-12T21:51:18.982Z,2.23
2018-08-12T21:53:47.779Z,2.83
2018-08-12T21:56:16.513Z,3.60
2018-08-12T21:58:45.520Z,4.23
2018-08-12T22:01:14.621Z,2.53
2018-08-12T22:03:43.961Z,2.80
2018-08-12T22:06:13.499Z,2.77
2018-08-12T22:08:42.331Z,2.93
2018-08-12T22:11:11.281Z,5.43
2018-08-12T22:13:40.348Z,4.50
2018-08-12T22:16:09.214Z,3.70
2018-08-12T22:18:38.097Z,3.03
2018-08-12T22:21:07.239Z,2.93
2018-08-12T22:23:36.366Z,5.13
2018-08-12T22:26:05.422Z,2.80
2018-08-12T22:28:35.466Z,3.07
2018-08-12T22:31:04.187Z,2.80
2018-08-12T22:33:32.939Z,2.93
2018-08-12T22:36:02.011Z,3.80
2018-08-12T22:38:31.179Z,3.87
2018-08-12T22:41:00.155Z,4.10
2018-08-12T22:43:28.918Z,2.43
2018-08-12T22:45:57.833Z,3.27
2018-08-12T22:48:26.780Z,8.27
2018-08-12T22:50:55.727Z,2.93
2018-08-12T22:53:24.511Z,3.90
2018-08-12T22:55:53.386Z,2.93
2018-08-12T22:58:22.808Z,2.30
2018-08-12T23:00:52.025Z,2.40
2018-08-12T23:03:20.774Z,2.40
2018-08-12T23:05:49.563Z,5.53
2018-08-12T23:08:18.316Z,2.30
2018-08-12T23:10:47.140Z,3.40
2018-08-12T23:13:16.930Z,4.53
2018-08-12T23:16:23.968Z,3.60
2018-08-12T23:18:52.735Z,3.90
2018-08-12T23:21:21.937Z,3.63
2018-08-12T23:23:52.201Z,2.20
2018-08-12T23:26:22.679Z,4.13
2018-08-12T23:28:51.645Z,8.53
2018-08-12T23:31:20.458Z,2.53
2018-08-12T23:33:49.346Z,2.73
2018-08-12T23:36:18.139Z,6.13
2018-08-12T23:38:46.956Z,4.27
2018-08-12T23:41:16.295Z,2.50
2018-08-12T23:43:45.065Z,2.30
2018-08-12T23:46:14.506Z,9.63
2018-08-12T23:48:43.298Z,3.63
2018-08-12T23:51:12.438Z,2.60
2018-08-12T23:53:41.868Z,6.70
2018-08-12T23:56:10.783Z,6.60
2018-08-12T23:58:40.074Z,4.60
